Hlavní strana
METAR-TAF:

METAR-TAF

Letiště :

Salinas, Ekvádor

zeměpisná šířka: 02-12-18S, zeměpisná délka: 080-59-20W, výška: 5 m

Aktuální stav počasí

Zpráva byla vytvořena před 8 hodinami a 2 minutami, v 02:00 UTC
Západní vítr 6 kt
Teplota 28°C
Vlhkost vzduchu 79%
Tlak 1011 hPa
Viditelnost 10 km a více
Skoro jasno ve výšce 3000 ft

METAR: SESA 240200Z 26006KT 9999 FEW030 28/24 Q1011 RMK A2986

Čas: 05:02 (10:02 UTC)


TAF: chybějící

Stav a předpovědi počasí z více než 4 000 letišť (zprávy METAR a TAF).

Červené a žluté tečky na mapě představují dostupné meteorologické stanice.

Když kurzor umístíte na tečku, zobrazí se název stanice.

Pak kliknutím zobrazíte stav a předpověď počasí.

Chcete-li změnit mapu, kliknutím na zelené tlačítko se znaménkem +mapu přiblížíte, kliknutím na zelené tlačítko se znaménkem – mapu oddálíte a kliknutím na zelené šipky přejdete na sousední mapy.


METAR-TAF: